Time;durP1;ratioP1;P1;durP2;ratioP2;P2;SDS_P1;SDS_P2;PMS_P1;PMS_P2;Temp;Humidity;BMP_temperature;BMP_pressure;BME280_temperature;BME280_humidity;BME280_pressure;Samples;Min_cycle;Max_cycle;Signal;HPM_P1;HPM_P2
2021/04/30 00:02:08;;;;;;;21.42;11.52;;;8.10;98.00;;;;;;5012664;28;20041;-89
2021/04/30 00:04:33;;;;;;;21.70;10.38;;;8.10;98.00;;;;;;4995641;28;20044;-90
2021/04/30 00:07:01;;;;;;;18.15;9.60;;;8.20;98.10;;;;;;4980021;28;20026;-90
2021/04/30 00:09:27;;;;;;;18.75;10.00;;;8.20;98.00;;;;;;4982837;28;20026;-90
2021/04/30 00:11:53;;;;;;;24.05;10.43;;;8.20;98.00;;;;;;4996576;28;20088;-90
2021/04/30 00:14:20;;;;;;;21.95;10.85;;;8.20;98.00;;;;;;4996619;28;20033;-89
2021/04/30 00:16:46;;;;;;;18.02;9.90;;;8.20;98.00;;;;;;4976612;28;20045;-90
2021/04/30 00:19:14;;;;;;;18.55;9.63;;;8.20;98.00;;;;;;4989320;28;20026;-90
2021/04/30 00:21:40;;;;;;;21.50;10.85;;;8.20;97.90;;;;;;4996740;28;20033;-91
2021/04/30 00:24:06;;;;;;;19.15;10.23;;;8.20;98.00;;;;;;4980897;28;20037;-90
2021/04/30 00:26:32;;;;;;;20.48;8.82;;;8.20;97.90;;;;;;5016687;28;20462;-91
2021/04/30 00:28:59;;;;;;;16.33;8.13;;;8.30;97.90;;;;;;5001659;28;20021;-90
2021/04/30 00:31:27;;;;;;;16.60;9.65;;;8.20;97.90;;;;;;4996240;28;20495;-90
2021/04/30 00:33:57;;;;;;;14.18;9.13;;;8.30;97.90;;;;;;5013296;28;20036;-89
2021/04/30 00:36:22;;;;;;;21.42;9.45;;;8.30;97.90;;;;;;4996277;28;20018;-91
2021/04/30 00:38:48;;;;;;;17.67;9.13;;;8.30;97.90;;;;;;4995860;28;20032;-90
2021/04/30 00:41:14;;;;;;;16.90;9.43;;;8.30;97.90;;;;;;4996461;28;20088;-90
2021/04/30 00:43:43;;;;;;;13.18;8.40;;;8.30;97.90;;;;;;4979556;28;20032;-90
2021/04/30 00:46:09;;;;;;;19.38;9.27;;;8.30;97.90;;;;;;4992312;28;20018;-91
2021/04/30 00:48:52;;;;;;;20.20;9.02;;;8.30;98.00;;;;;;4995992;28;20022;-91
2021/04/30 00:51:18;;;;;;;24.67;10.35;;;8.30;98.00;;;;;;4995761;28;20046;-90
2021/04/30 00:53:43;;;;;;;15.45;9.15;;;8.20;97.90;;;;;;4991751;28;20494;-90
2021/04/30 00:56:09;;;;;;;16.55;8.90;;;8.30;97.90;;;;;;4992840;28;20034;-90
2021/04/30 00:58:35;;;;;;;18.42;9.27;;;8.20;98.00;;;;;;4995882;28;20018;-91
2021/04/30 01:01:01;;;;;;;14.77;9.23;;;8.30;98.00;;;;;;4979143;28;20532;-90
2021/04/30 01:03:27;;;;;;;24.77;10.00;;;8.30;98.00;;;;;;4995819;28;20025;-90
2021/04/30 01:05:55;;;;;;;15.60;9.00;;;8.30;98.00;;;;;;4995775;28;20466;-90
2021/04/30 01:08:21;;;;;;;15.57;9.30;;;8.30;98.00;;;;;;4987924;28;20409;-89
2021/04/30 01:10:47;;;;;;;22.45;10.30;;;8.30;98.00;;;;;;4995377;28;20038;-89
2021/04/30 01:13:13;;;;;;;18.88;10.27;;;8.30;98.00;;;;;;4995640;28;20594;-91
2021/04/30 01:15:39;;;;;;;21.38;11.98;;;8.30;98.00;;;;;;4968991;28;20026;-89
2021/04/30 01:18:08;;;;;;;22.45;11.90;;;8.30;98.00;;;;;;4983515;28;20605;-89
2021/04/30 01:20:33;;;;;;;24.13;12.38;;;8.40;98.00;;;;;;4999376;28;20121;-90
2021/04/30 01:23:03;;;;;;;25.17;12.20;;;8.40;98.00;;;;;;5002960;28;20524;-90
2021/04/30 01:25:34;;;;;;;23.70;13.18;;;8.40;98.00;;;;;;4987005;28;20139;-89
2021/04/30 01:28:02;;;;;;;17.45;10.65;;;8.40;98.10;;;;;;4983103;28;20031;-90
2021/04/30 01:30:30;;;;;;;21.38;12.10;;;8.40;98.00;;;;;;4986731;28;20077;-90
2021/04/30 01:33:04;;;;;;;16.15;10.52;;;8.40;98.10;;;;;;5007988;28;20018;-90
2021/04/30 01:35:32;;;;;;;17.95;11.20;;;8.40;98.10;;;;;;4999485;28;20487;-92
2021/04/30 01:37:59;;;;;;;19.85;11.30;;;8.40;98.10;;;;;;4989732;28;20023;-90
2021/04/30 01:40:27;;;;;;;18.77;10.27;;;8.40;98.00;;;;;;5015277;28;20022;-91
2021/04/30 01:43:18;;;;;;;21.48;11.07;;;8.40;98.00;;;;;;4998409;28;20026;-90
2021/04/30 01:45:52;;;;;;;17.63;10.35;;;8.40;98.00;;;;;;4997822;28;20022;-90
2021/04/30 01:48:20;;;;;;;22.55;11.00;;;8.40;98.00;;;;;;4998558;28;20026;-90
2021/04/30 01:50:47;;;;;;;27.13;12.20;;;8.40;98.00;;;;;;5015336;28;20050;-91
2021/04/30 01:53:22;;;;;;;20.67;11.55;;;8.40;98.00;;;;;;5016610;28;20470;-90
2021/04/30 01:55:48;;;;;;;17.98;10.75;;;8.40;98.00;;;;;;5016523;28;20072;-91
2021/04/30 01:58:16;;;;;;;17.48;11.27;;;8.40;98.00;;;;;;4998565;28;20429;-90
2021/04/30 02:00:44;;;;;;;19.20;9.75;;;8.40;98.00;;;;;;4998907;28;20028;-89
2021/04/30 02:03:10;;;;;;;18.60;11.90;;;8.50;98.00;;;;;;5005623;28;20033;-90
2021/04/30 02:05:37;;;;;;;16.40;10.45;;;8.50;98.00;;;;;;5002822;28;20121;-90
2021/04/30 02:08:05;;;;;;;16.65;10.20;;;8.50;98.00;;;;;;4989117;28;20061;-90
2021/04/30 02:10:31;;;;;;;20.70;11.07;;;8.50;98.00;;;;;;4998316;28;20422;-90
2021/04/30 02:12:57;;;;;;;17.55;10.35;;;8.50;98.00;;;;;;4998832;28;20493;-90
2021/04/30 02:15:28;;;;;;;18.80;10.35;;;8.50;98.00;;;;;;4985007;28;20030;-90
2021/04/30 02:17:57;;;;;;;17.98;11.25;;;8.50;98.00;;;;;;4998663;28;20022;-90
2021/04/30 02:20:23;;;;;;;22.40;12.27;;;8.50;98.00;;;;;;5015859;28;20037;-89
2021/04/30 02:22:49;;;;;;;19.70;11.43;;;8.50;98.00;;;;;;4998635;28;20018;-90
2021/04/30 02:25:18;;;;;;;21.83;11.35;;;8.50;98.00;;;;;;4998752;28;20504;-91
2021/04/30 02:27:45;;;;;;;22.55;11.82;;;8.50;98.00;;;;;;4998337;28;20463;-89
2021/04/30 02:30:13;;;;;;;19.85;11.35;;;8.50;98.00;;;;;;4997536;28;20033;-91
2021/04/30 02:32:39;;;;;;;21.30;11.40;;;8.50;98.00;;;;;;4997762;28;20030;-90
2021/04/30 02:35:12;;;;;;;20.15;10.55;;;8.50;98.00;;;;;;5016112;28;20026;-91
2021/04/30 02:37:41;;;;;;;17.83;10.73;;;8.50;98.00;;;;;;4997043;28;20034;-90
2021/04/30 02:40:08;;;;;;;18.30;11.23;;;8.50;98.00;;;;;;4986184;28;20406;-92
2021/04/30 02:42:37;;;;;;;15.57;9.70;;;8.50;98.00;;;;;;4998243;28;20040;-89
2021/04/30 02:45:06;;;;;;;17.67;9.90;;;8.50;98.30;;;;;;4969124;28;20088;-90
2021/04/30 02:47:45;;;;;;;17.15;9.27;;;8.50;98.00;;;;;;4998075;28;20021;-91
2021/04/30 02:50:14;;;;;;;15.85;9.38;;;8.60;98.10;;;;;;4997705;28;20022;-91
2021/04/30 02:52:40;;;;;;;21.13;11.10;;;8.60;98.00;;;;;;4990147;28;20544;-90
2021/04/30 02:55:06;;;;;;;16.73;10.23;;;8.50;98.00;;;;;;4992750;28;20022;-90
2021/04/30 02:57:33;;;;;;;17.90;10.30;;;8.60;98.00;;;;;;4997764;28;20022;-90
2021/04/30 03:00:00;;;;;;;16.23;10.05;;;8.50;98.00;;;;;;4998204;28;20065;-90
2021/04/30 03:02:26;;;;;;;17.52;10.07;;;8.60;98.00;;;;;;4997930;28;20026;-91
2021/04/30 03:04:52;;;;;;;19.77;10.25;;;8.50;98.00;;;;;;4990280;28;20402;-91
2021/04/30 03:07:23;;;;;;;18.27;9.73;;;8.50;98.00;;;;;;4978221;28;20027;-90
2021/04/30 03:09:51;;;;;;;18.00;10.60;;;8.50;98.00;;;;;;4986305;28;20030;-90
2021/04/30 03:12:19;;;;;;;15.50;9.02;;;8.50;98.00;;;;;;4991460;28;20034;-90
2021/04/30 03:14:45;;;;;;;12.35;8.32;;;8.50;98.00;;;;;;4988598;28;20037;-90
2021/04/30 03:17:11;;;;;;;17.17;8.45;;;8.50;98.00;;;;;;4964166;28;20031;-90
2021/04/30 03:19:37;;;;;;;18.17;8.98;;;8.50;98.00;;;;;;4997814;28;20061;-91
2021/04/30 03:22:02;;;;;;;19.05;9.82;;;8.50;98.30;;;;;;4997504;28;20029;-93
2021/04/30 03:24:28;;;;;;;18.13;9.00;;;8.50;98.00;;;;;;4978105;28;20361;-91
2021/04/30 03:26:54;;;;;;;16.83;9.20;;;8.50;98.00;;;;;;4969327;28;20070;-89
2021/04/30 03:29:22;;;;;;;19.80;9.27;;;8.50;98.10;;;;;;4995071;28;20022;-90
2021/04/30 03:31:47;;;;;;;22.75;10.02;;;8.50;98.10;;;;;;4997668;28;20096;-90
2021/04/30 03:34:13;;;;;;;20.83;10.57;;;8.50;98.10;;;;;;4996271;28;20079;-92
2021/04/30 03:36:39;;;;;;;16.92;9.93;;;8.50;98.10;;;;;;4996869;28;20109;-92
2021/04/30 03:39:07;;;;;;;13.85;9.88;;;8.50;98.10;;;;;;4976977;28;20154;-91
2021/04/30 03:41:35;;;;;;;18.27;9.82;;;8.50;98.10;;;;;;4996643;28;20038;-91
2021/04/30 03:44:03;;;;;;;17.30;9.38;;;8.50;98.10;;;;;;4989969;28;20044;-91
2021/04/30 03:46:32;;;;;;;16.15;9.25;;;8.50;98.10;;;;;;4996615;28;20021;-90
2021/04/30 03:49:00;;;;;;;18.77;9.65;;;8.50;98.10;;;;;;4978104;28;20080;-90
2021/04/30 03:51:28;;;;;;;19.23;9.95;;;8.50;98.00;;;;;;4996399;28;20050;-90
2021/04/30 03:53:57;;;;;;;20.38;11.10;;;8.60;98.10;;;;;;4997122;28;20017;-90
2021/04/30 03:56:22;;;;;;;17.30;9.63;;;8.50;98.00;;;;;;5000765;28;20640;-90
2021/04/30 03:58:48;;;;;;;16.58;9.65;;;8.50;98.10;;;;;;4980864;28;20116;-90
2021/04/30 04:01:14;;;;;;;14.65;9.63;;;8.50;98.10;;;;;;4996741;28;20474;-92
2021/04/30 04:03:40;;;;;;;16.50;10.13;;;8.50;98.10;;;;;;4996812;28;20022;-91
2021/04/30 04:06:12;;;;;;;17.48;10.55;;;8.50;98.10;;;;;;4996875;28;20030;-91
2021/04/30 04:08:37;;;;;;;17.05;10.48;;;8.60;98.10;;;;;;4996431;28;20485;-92
2021/04/30 04:11:06;;;;;;;18.83;10.02;;;8.60;98.10;;;;;;4997571;28;20026;-91
2021/04/30 04:13:31;;;;;;;16.33;10.02;;;8.60;98.10;;;;;;4983536;28;20117;-90
2021/04/30 04:16:02;;;;;;;19.67;10.20;;;8.60;98.10;;;;;;4980581;28;20098;-91
2021/04/30 04:18:28;;;;;;;18.52;10.27;;;8.60;98.10;;;;;;4994805;28;20037;-90
2021/04/30 04:20:54;;;;;;;17.92;10.02;;;8.60;98.10;;;;;;4987665;28;20030;-90
2021/04/30 04:23:22;;;;;;;16.48;9.80;;;8.60;98.10;;;;;;4993014;28;20067;-90
2021/04/30 04:25:50;;;;;;;17.63;9.35;;;8.60;98.30;;;;;;4986088;28;20026;-92
2021/04/30 04:28:16;;;;;;;15.23;9.82;;;8.60;98.10;;;;;;4993101;28;20029;-90
2021/04/30 04:30:45;;;;;;;18.40;10.32;;;8.60;98.10;;;;;;4999820;28;20018;-91
2021/04/30 04:33:11;;;;;;;19.60;10.07;;;8.60;98.10;;;;;;4996259;28;20125;-90
2021/04/30 04:35:37;;;;;;;21.85;10.70;;;8.60;98.10;;;;;;4979426;28;20128;-92
2021/04/30 04:38:04;;;;;;;18.70;10.60;;;8.60;98.10;;;;;;5013591;28;20032;-91
2021/04/30 04:40:29;;;;;;;17.33;10.93;;;8.60;98.10;;;;;;4994521;28;20025;-91
2021/04/30 04:42:55;;;;;;;19.42;10.05;;;8.60;98.10;;;;;;4978383;28;20386;-91
2021/04/30 04:45:25;;;;;;;17.33;10.43;;;8.60;98.10;;;;;;4994829;28;20025;-93
2021/04/30 04:47:53;;;;;;;19.85;11.05;;;8.60;98.10;;;;;;4993070;28;20018;-91
2021/04/30 04:50:19;;;;;;;21.13;10.85;;;8.60;98.10;;;;;;4996164;28;20029;-91
2021/04/30 04:52:45;;;;;;;27.25;13.40;;;8.70;98.10;;;;;;4976290;28;20055;-90
2021/04/30 04:55:12;;;;;;;20.50;10.90;;;8.60;98.10;;;;;;4991084;28;20556;-92
2021/04/30 04:57:39;;;;;;;16.50;9.73;;;8.60;98.10;;;;;;5000436;28;20056;-90
2021/04/30 05:00:08;;;;;;;17.85;9.98;;;8.60;98.10;;;;;;4994768;28;20026;-91
2021/04/30 05:02:34;;;;;;;22.98;10.50;;;8.60;98.10;;;;;;4980097;28;20038;-89
2021/04/30 05:05:11;;;;;;;20.25;10.25;;;8.60;98.10;;;;;;4996377;28;20024;-91
2021/04/30 05:07:36;;;;;;;19.70;8.73;;;8.60;98.10;;;;;;4997114;28;20026;-92
2021/04/30 05:10:06;;;;;;;19.90;9.43;;;8.60;98.10;;;;;;4996302;28;20121;-92
2021/04/30 05:12:34;;;;;;;14.68;9.32;;;8.60;98.20;;;;;;4996596;28;20022;-91
2021/04/30 05:14:59;;;;;;;17.27;8.98;;;8.60;98.20;;;;;;4996475;28;20120;-91
2021/04/30 05:17:28;;;;;;;17.55;9.73;;;8.60;98.20;;;;;;4989991;28;20060;-91
2021/04/30 05:19:53;;;;;;;15.30;9.05;;;8.60;98.20;;;;;;5007339;28;20056;-92
2021/04/30 05:22:19;;;;;;;18.30;8.98;;;8.60;98.20;;;;;;4995248;28;20030;-89
2021/04/30 05:24:48;;;;;;;16.83;9.05;;;8.70;98.20;;;;;;4996407;28;20037;-90
2021/04/30 05:27:14;;;;;;;18.27;9.63;;;8.60;98.20;;;;;;5009781;28;20027;-90
2021/04/30 05:29:47;;;;;;;20.60;9.38;;;8.70;98.20;;;;;;4985861;28;20029;-91
2021/04/30 05:32:17;;;;;;;18.08;10.15;;;8.60;98.20;;;;;;4995822;28;20124;-93
2021/04/30 05:34:43;;;;;;;19.48;9.65;;;8.70;98.20;;;;;;4995600;28;20390;-92
2021/04/30 05:37:13;;;;;;;13.55;8.60;;;8.70;98.20;;;;;;4981825;28;20022;-91
2021/04/30 05:39:39;;;;;;;15.95;8.88;;;8.70;98.20;;;;;;4983355;28;20108;-92
2021/04/30 05:42:05;;;;;;;15.43;8.48;;;8.70;98.20;;;;;;4995703;28;20049;-92
2021/04/30 05:44:31;;;;;;;14.88;9.15;;;8.70;98.20;;;;;;4990518;28;20023;-94
2021/04/30 05:46:59;;;;;;;19.98;8.75;;;8.80;98.20;;;;;;4976398;28;20044;-92
2021/04/30 05:49:26;;;;;;;23.15;9.88;;;8.80;98.20;;;;;;4979235;28;20037;-93
2021/04/30 05:51:55;;;;;;;19.10;10.10;;;8.70;98.20;;;;;;4995640;28;20069;-92
2021/04/30 05:54:21;;;;;;;16.85;9.13;;;8.80;98.20;;;;;;5000152;28;20061;-93
2021/04/30 05:56:47;;;;;;;14.80;8.70;;;8.70;98.20;;;;;;4996639;28;20018;-92
2021/04/30 05:59:12;;;;;;;17.15;8.80;;;8.70;98.20;;;;;;4977480;28;20045;-91
2021/04/30 06:01:40;;;;;;;17.55;9.05;;;8.70;98.20;;;;;;4995944;28;20109;-89
2021/04/30 06:04:06;;;;;;;17.27;9.90;;;8.80;98.30;;;;;;4996001;28;20064;-91
2021/04/30 06:06:32;;;;;;;20.77;9.63;;;8.70;98.20;;;;;;4998303;28;20057;-91
2021/04/30 06:08:58;;;;;;;22.10;10.45;;;8.80;98.20;;;;;;4999304;28;20026;-91
2021/04/30 06:11:24;;;;;;;20.40;11.52;;;8.80;98.20;;;;;;4998694;28;20052;-90
2021/04/30 06:13:50;;;;;;;22.17;10.48;;;8.80;98.30;;;;;;4999057;28;20034;-91
2021/04/30 06:16:18;;;;;;;24.00;12.15;;;8.90;98.20;;;;;;4998732;28;20026;-93
2021/04/30 06:18:43;;;;;;;28.92;13.02;;;8.80;98.20;;;;;;5016890;28;20036;-90
2021/04/30 06:21:10;;;;;;;19.70;12.13;;;8.80;98.20;;;;;;4999548;28;20389;-92
2021/04/30 06:23:36;;;;;;;19.30;12.07;;;8.80;98.20;;;;;;4985933;28;20068;-90
2021/04/30 06:26:03;;;;;;;21.85;11.35;;;8.80;98.20;;;;;;4989724;28;20475;-90
2021/04/30 06:28:31;;;;;;;18.15;11.65;;;8.80;98.30;;;;;;5012039;28;20030;-90
2021/04/30 06:30:59;;;;;;;18.77;11.18;;;8.80;98.30;;;;;;4984191;28;20030;-90
2021/04/30 06:33:25;;;;;;;23.15;11.40;;;8.80;98.30;;;;;;5014675;28;20394;-90
2021/04/30 06:35:54;;;;;;;21.55;11.75;;;8.80;98.30;;;;;;5001123;28;20040;-90
2021/04/30 06:38:22;;;;;;;19.23;10.90;;;8.80;98.30;;;;;;5000154;28;20045;-90
2021/04/30 06:40:48;;;;;;;21.65;12.20;;;8.90;98.30;;;;;;4999901;28;20528;-91
2021/04/30 06:43:16;;;;;;;22.20;11.45;;;8.90;98.30;;;;;;5000641;28;20124;-91
2021/04/30 06:45:41;;;;;;;22.50;11.75;;;8.90;98.40;;;;;;4999727;28;20033;-90
2021/04/30 06:48:30;;;;;;;19.15;11.65;;;8.90;98.30;;;;;;5016792;28;20022;-90
2021/04/30 06:50:59;;;;;;;20.40;12.38;;;8.90;98.30;;;;;;4995425;28;20045;-90
2021/04/30 06:53:27;;;;;;;21.90;12.52;;;8.90;98.30;;;;;;4975389;28;20181;-90
2021/04/30 06:55:55;;;;;;;20.63;13.35;;;8.90;98.50;;;;;;4980024;28;20019;-91
2021/04/30 07:05:14;;;;;;;20.67;13.18;;;9.00;98.30;;;;;;4979500;28;20025;-90
2021/04/30 07:07:43;;;;;;;26.95;13.30;;;9.00;98.30;;;;;;4963899;28;20025;-89
2021/04/30 07:10:10;;;;;;;21.13;12.18;;;9.00;98.30;;;;;;4964023;28;20030;-91
2021/04/30 07:12:39;;;;;;;24.88;13.30;;;9.00;98.40;;;;;;4975877;28;20034;-90
2021/04/30 07:15:07;;;;;;;24.05;14.30;;;9.10;98.40;;;;;;4984082;28;20038;-89
2021/04/30 07:17:33;;;;;;;21.05;13.60;;;9.10;98.40;;;;;;4974036;28;20022;-87
2021/04/30 07:19:59;;;;;;;23.95;14.18;;;9.10;98.40;;;;;;4946188;28;20031;-88
2021/04/30 07:22:25;;;;;;;22.50;13.98;;;9.20;98.40;;;;;;4963524;28;20023;-89
2021/04/30 07:24:50;;;;;;;28.42;14.57;;;9.20;98.40;;;;;;4962807;28;20244;-88
2021/04/30 07:27:17;;;;;;;23.65;13.88;;;9.20;98.40;;;;;;4995506;28;20471;-89
2021/04/30 07:29:44;;;;;;;23.23;13.90;;;9.20;98.40;;;;;;4978855;28;20114;-90
2021/04/30 07:32:12;;;;;;;25.00;15.15;;;9.20;98.50;;;;;;4975887;28;20109;-89
2021/04/30 07:34:39;;;;;;;18.52;14.27;;;9.30;98.50;;;;;;4989238;28;20496;-89
2021/04/30 07:37:05;;;;;;;20.40;14.10;;;9.30;98.50;;;;;;4978762;28;20034;-89
2021/04/30 07:39:35;;;;;;;22.25;13.93;;;9.40;98.50;;;;;;4977889;28;20483;-92
2021/04/30 07:42:02;;;;;;;22.10;14.18;;;9.40;98.50;;;;;;4976525;28;20053;-90
2021/04/30 07:44:30;;;;;;;19.58;14.18;;;9.40;98.50;;;;;;4978945;28;20034;-87
2021/04/30 07:46:56;;;;;;;27.75;17.35;;;9.50;98.50;;;;;;4978987;28;20023;-88
2021/04/30 07:49:22;;;;;;;27.23;17.50;;;9.50;98.50;;;;;;4979656;28;20039;-86
2021/04/30 07:55:29;;;;;;;27.70;18.08;;;9.60;98.50;;;;;;4987618;28;20147;-90
2021/04/30 07:57:54;;;;;;;27.30;18.02;;;9.60;98.40;;;;;;4978570;28;20054;-87
2021/04/30 08:00:20;;;;;;;26.13;17.80;;;9.60;98.40;;;;;;4979880;28;20044;-88
2021/04/30 08:02:59;;;;;;;28.80;19.27;;;9.60;98.40;;;;;;4963713;28;20502;-87
2021/04/30 08:05:43;;;;;;;30.77;20.45;;;9.60;98.40;;;;;;4959600;28;20130;-88
2021/04/30 08:08:09;;;;;;;34.65;22.73;;;9.60;98.40;;;;;;4955038;28;20033;-90
2021/04/30 08:10:34;;;;;;;32.70;21.42;;;9.60;98.40;;;;;;4979142;28;20034;-89
2021/04/30 08:13:00;;;;;;;36.42;22.13;;;9.60;98.30;;;;;;4965475;28;20038;-89
2021/04/30 08:15:26;;;;;;;33.75;22.25;;;9.60;98.30;;;;;;4964499;28;20030;-89
2021/04/30 08:17:52;;;;;;;30.88;20.08;;;9.60;98.30;;;;;;4961858;28;20134;-87
2021/04/30 08:20:17;;;;;;;28.38;19.88;;;9.60;98.30;;;;;;4994798;28;20026;-88
2021/04/30 08:22:43;;;;;;;31.08;21.10;;;9.60;98.30;;;;;;4961344;28;20562;-89
2021/04/30 08:25:14;;;;;;;27.20;19.48;;;9.60;98.30;;;;;;4961335;28;20085;-89
2021/04/30 08:27:40;;;;;;;;;;;9.60;98.30;;;;;;4961614;28;20030;-90
2021/04/30 08:30:06;;;;;;;30.25;19.48;;;9.60;98.30;;;;;;4977643;28;19906;-89
2021/04/30 08:32:32;;;;;;;32.35;21.25;;;9.60;98.30;;;;;;4977338;28;20033;-88
2021/04/30 08:34:58;;;;;;;31.88;21.25;;;9.70;98.40;;;;;;4968096;28;20030;-87
2021/04/30 08:37:24;;;;;;;29.08;21.20;;;9.70;98.40;;;;;;4985890;28;20035;-89
2021/04/30 08:39:50;;;;;;;29.08;19.67;;;9.70;98.40;;;;;;4977884;28;20426;-88
2021/04/30 08:42:17;;;;;;;26.05;18.88;;;9.70;98.30;;;;;;4968485;28;20034;-88
2021/04/30 08:44:43;;;;;;;26.77;20.10;;;9.70;98.30;;;;;;4961011;28;20034;-89
2021/04/30 08:47:18;;;;;;;26.50;19.10;;;9.80;98.30;;;;;;4979377;28;20026;-89
2021/04/30 08:49:45;;;;;;;28.77;18.83;;;9.80;98.30;;;;;;4973993;28;20049;-88
2021/04/30 08:52:11;;;;;;;23.08;17.33;;;9.90;98.40;;;;;;4952306;28;20067;-88
2021/04/30 08:54:37;;;;;;;29.73;19.27;;;9.90;98.40;;;;;;4976127;28;20041;-88
2021/04/30 08:57:06;;;;;;;27.13;19.20;;;10.00;98.40;;;;;;4972715;28;20042;-88
2021/04/30 08:59:32;;;;;;;29.15;20.25;;;10.10;98.40;;;;;;4969163;28;20133;-88
2021/04/30 09:02:00;;;;;;;30.80;22.48;;;10.10;98.40;;;;;;4976523;28;20106;-89
2021/04/30 09:04:26;;;;;;;35.60;23.35;;;10.10;98.30;;;;;;4977297;28;20034;-89
2021/04/30 09:06:52;;;;;;;38.60;25.98;;;10.10;98.20;;;;;;4971879;28;20026;-89
2021/04/30 09:09:20;;;;;;;33.58;23.33;;;10.10;98.00;;;;;;4987996;28;20121;-87
2021/04/30 09:11:54;;;;;;;36.00;25.33;;;10.10;97.90;;;;;;4993476;28;20027;-89
2021/04/30 09:14:34;;;;;;;33.92;24.83;;;10.00;98.00;;;;;;4995355;28;20053;-89
2021/04/30 09:17:17;;;;;;;31.52;22.52;;;10.00;97.90;;;;;;4978821;28;20026;-90
2021/04/30 09:19:59;;;;;;;25.73;20.27;;;10.00;97.90;;;;;;5000511;28;20026;-89
2021/04/30 09:22:36;;;;;;;32.17;22.52;;;10.10;98.00;;;;;;5013365;28;20050;-89
2021/04/30 09:25:11;;;;;;;32.97;21.90;;;10.10;97.90;;;;;;4980789;28;20026;-90
2021/04/30 09:27:45;;;;;;;36.53;24.60;;;10.10;98.00;;;;;;4976676;28;20117;-91
2021/04/30 09:30:41;;;;;;;32.28;22.25;;;10.10;97.90;;;;;;4991755;28;20015;-93
2021/04/30 09:33:18;;;;;;;29.75;22.33;;;10.10;97.80;;;;;;4978953;28;20088;-90
2021/04/30 09:35:50;;;;;;;33.60;23.20;;;10.10;97.80;;;;;;4972452;28;20117;-90
2021/04/30 09:38:21;;;;;;;32.47;21.52;;;10.10;97.70;;;;;;4990706;28;20030;-91
2021/04/30 09:40:51;;;;;;;32.58;22.02;;;10.00;97.60;;;;;;4976966;28;20023;-89
2021/04/30 09:43:17;;;;;;;30.83;20.02;;;10.00;97.60;;;;;;4982375;28;20113;-89
2021/04/30 09:45:49;;;;;;;36.03;23.42;;;10.00;97.60;;;;;;4983193;28;20022;-90
2021/04/30 09:48:20;;;;;;;32.90;21.60;;;10.00;97.50;;;;;;5001145;28;20452;-90
2021/04/30 09:50:46;;;;;;;24.38;19.55;;;10.00;97.60;;;;;;4994750;28;20018;-90
2021/04/30 09:53:13;;;;;;;25.83;19.58;;;10.00;97.60;;;;;;4988441;28;20096;-90
2021/04/30 09:55:51;;;;;;;26.60;20.25;;;10.00;97.70;;;;;;4989267;28;20018;-90
2021/04/30 09:58:19;;;;;;;26.45;19.02;;;10.10;97.70;;;;;;4978741;28;20103;-91
2021/04/30 10:01:13;;;;;;;23.17;19.05;;;10.10;97.70;;;;;;4998022;28;20033;-91
2021/04/30 10:03:39;;;;;;;22.52;18.60;;;10.20;97.80;;;;;;4994850;28;20029;-92
2021/04/30 10:06:12;;;;;;;25.13;19.17;;;10.20;97.80;;;;;;4982253;28;20132;-91
2021/04/30 10:08:40;;;;;;;28.67;19.73;;;10.20;97.80;;;;;;4991101;28;20014;-92
2021/04/30 10:11:42;;;;;;;26.70;21.17;;;10.30;97.80;;;;;;5000003;28;20036;-89
2021/04/30 10:14:08;;;;;;;28.45;20.67;;;10.30;97.80;;;;;;4980271;28;20041;-90
2021/04/30 10:16:34;;;;;;;31.38;22.48;;;10.30;97.80;;;;;;4983343;28;20030;-89
2021/04/30 10:19:00;;;;;;;27.33;20.83;;;10.30;97.80;;;;;;5005778;28;20364;-94
2021/04/30 10:21:30;;;;;;;26.38;21.73;;;10.40;97.90;;;;;;5000230;28;20022;-91
2021/04/30 10:23:58;;;;;;;29.17;21.95;;;10.40;97.90;;;;;;4989748;28;20026;-91
2021/04/30 10:26:27;;;;;;;32.90;22.08;;;10.40;97.90;;;;;;4980151;28;20041;-90
2021/04/30 10:28:59;;;;;;;28.98;21.55;;;10.40;97.90;;;;;;4982656;28;20029;-92
2021/04/30 10:31:31;;;;;;;27.30;21.73;;;10.40;97.90;;;;;;4995435;28;20037;-91
2021/04/30 10:34:39;;;;;;;30.85;21.10;;;10.40;98.20;;;;;;4998862;28;20343;-90
2021/04/30 10:37:31;;;;;;;31.63;23.65;;;10.50;98.00;;;;;;4999001;28;20037;-89
2021/04/30 10:40:04;;;;;;;30.15;23.33;;;10.40;97.90;;;;;;5008224;28;20030;-91
2021/04/30 10:42:43;;;;;;;27.35;22.48;;;10.40;97.80;;;;;;4997167;28;20025;-90
2021/04/30 10:45:44;;;;;;;29.40;21.80;;;10.40;97.80;;;;;;4993040;28;20010;-91
2021/04/30 10:48:55;;;;;;;27.83;21.70;;;10.40;97.80;;;;;;5004356;28;20034;-90
2021/04/30 10:51:24;;;;;;;28.05;22.25;;;10.40;97.70;;;;;;4972525;28;20053;-90
2021/04/30 10:53:50;;;;;;;33.10;24.33;;;10.40;97.70;;;;;;4997291;28;20429;-94
2021/04/30 10:57:07;;;;;;;30.83;22.40;;;10.30;97.60;;;;;;5000063;28;20045;-92
2021/04/30 10:59:36;;;;;;;28.15;21.98;;;10.40;97.60;;;;;;4932921;29;20391;-91
2021/04/30 11:03:00;;;;;;;32.72;25.60;;;10.30;97.50;;;;;;4946619;28;20042;-90
2021/04/30 11:06:07;;;;;;;26.70;22.10;;;10.40;97.40;;;;;;4990887;28;20025;-93
2021/04/30 11:09:05;;;;;;;;;;;;;;;;;;;;;
2021/04/30 11:11:35;;;;;;;26.20;20.85;;;10.50;97.50;;;;;;4997101;28;20029;-89
2021/04/30 11:14:25;;;;;;;26.40;20.92;;;10.50;97.50;;;;;;4995375;28;20034;-90
2021/04/30 11:16:59;;;;;;;29.60;21.75;;;10.60;97.50;;;;;;4996773;28;20033;-90
2021/04/30 11:19:29;;;;;;;24.80;19.15;;;10.70;97.50;;;;;;5013138;28;20022;-90
2021/04/30 11:22:37;;;;;;;31.00;24.15;;;10.70;97.40;;;;;;4994910;28;20108;-91
2021/04/30 11:25:04;;;;;;;27.77;21.52;;;10.70;97.10;;;;;;4992884;28;20034;-90
2021/04/30 11:27:31;;;;;;;26.70;21.20;;;10.80;97.10;;;;;;4997903;28;20084;-90
2021/04/30 11:30:22;;;;;;;29.85;22.40;;;10.80;96.90;;;;;;4997973;28;20529;-89
2021/04/30 11:33:13;;;;;;;26.30;20.50;;;10.80;96.60;;;;;;4995309;28;20026;-90
2021/04/30 11:35:39;;;;;;;26.90;22.90;;;10.70;96.50;;;;;;4997258;28;20276;-90
2021/04/30 11:38:07;;;;;;;28.80;21.05;;;10.70;96.40;;;;;;4997393;28;20017;-92
2021/04/30 11:40:33;;;;;;;26.38;21.27;;;10.80;96.40;;;;;;4994320;28;20126;-90
2021/04/30 11:43:06;;;;;;;25.30;20.00;;;10.80;96.40;;;;;;4979066;28;20128;-90
2021/04/30 11:45:35;;;;;;;26.77;19.58;;;10.90;96.50;;;;;;4985984;28;20026;-90
2021/04/30 11:48:24;;;;;;;26.02;20.50;;;11.00;96.60;;;;;;4997777;28;20026;-91
2021/04/30 11:51:07;;;;;;;23.92;18.90;;;11.00;96.50;;;;;;4978201;28;20116;-91
2021/04/30 11:53:39;;;;;;;26.30;20.25;;;11.00;96.30;;;;;;4998153;28;20049;-90
2021/04/30 11:56:06;;;;;;;23.40;19.13;;;11.10;95.60;;;;;;4998344;28;20030;-88
2021/04/30 11:58:45;;;;;;;23.35;18.95;;;11.10;95.40;;;;;;4997886;28;20109;-91
2021/04/30 12:01:15;;;;;;;24.92;18.70;;;11.10;95.30;;;;;;4997665;28;20033;-90
2021/04/30 12:03:54;;;;;;;23.80;18.63;;;11.20;95.30;;;;;;4996940;28;20181;-90
2021/04/30 12:06:25;;;;;;;25.45;19.75;;;11.20;95.20;;;;;;4997889;28;20036;-89
2021/04/30 12:08:53;;;;;;;23.52;19.38;;;11.20;95.00;;;;;;4998933;28;20026;-90
2021/04/30 12:11:28;;;;;;;23.10;18.20;;;11.20;95.00;;;;;;4997691;28;20037;-90
2021/04/30 12:13:59;;;;;;;21.75;17.63;;;11.20;94.90;;;;;;4998036;28;20131;-90
2021/04/30 12:16:25;;;;;;;21.48;17.00;;;11.20;94.90;;;;;;4997602;28;20071;-90
2021/04/30 12:18:57;;;;;;;21.75;17.60;;;11.30;95.00;;;;;;4997968;28;20378;-91
2021/04/30 12:21:28;;;;;;;23.33;18.15;;;11.30;95.00;;;;;;5001532;28;20056;-90
2021/04/30 12:23:54;;;;;;;21.05;15.23;;;11.30;94.80;;;;;;5002584;28;20037;-91
2021/04/30 12:26:36;;;;;;;18.55;15.32;;;11.30;95.00;;;;;;4982708;28;20451;-90
2021/04/30 12:29:11;;;;;;;16.58;14.00;;;11.40;95.00;;;;;;5005992;28;20042;-91
2021/04/30 12:31:39;;;;;;;18.50;13.95;;;11.50;95.00;;;;;;4997761;28;20038;-89
2021/04/30 12:34:05;;;;;;;17.05;14.20;;;11.50;95.10;;;;;;4983030;28;20130;-90
2021/04/30 12:36:32;;;;;;;18.58;14.30;;;11.60;95.10;;;;;;4996610;28;20367;-89
2021/04/30 12:39:10;;;;;;;18.80;13.77;;;11.60;95.30;;;;;;4993858;28;20060;-89
2021/04/30 12:41:41;;;;;;;16.38;12.88;;;11.70;95.20;;;;;;4997518;28;20018;-89
2021/04/30 12:44:09;;;;;;;18.80;14.85;;;11.80;95.30;;;;;;5014897;28;20026;-88
2021/04/30 12:46:44;;;;;;;16.90;12.38;;;11.80;95.70;;;;;;4998193;28;20092;-89
2021/04/30 12:49:13;;;;;;;16.02;11.73;;;11.90;95.30;;;;;;4998305;28;20037;-89
2021/04/30 12:51:50;;;;;;;15.00;11.60;;;12.00;95.50;;;;;;4999314;28;20119;-89
2021/04/30 12:54:38;;;;;;;12.35;10.45;;;12.20;95.80;;;;;;5001033;28;20022;-89
2021/04/30 12:57:10;;;;;;;16.02;10.60;;;12.30;95.60;;;;;;4987025;28;20101;-88
2021/04/30 12:59:55;;;;;;;12.32;8.52;;;12.40;95.10;;;;;;5000850;28;20026;-88
2021/04/30 13:02:31;;;;;;;13.23;9.32;;;12.40;94.70;;;;;;5002639;28;20024;-88
2021/04/30 13:04:58;;;;;;;11.48;8.40;;;12.50;94.60;;;;;;5022153;28;20018;-89